Time;durP1;ratioP1;P1;durP2;ratioP2;P2;SDS_P1;SDS_P2;PMS_P1;PMS_P2;Temp;Humidity;BMP_temperature;BMP_pressure;BME280_temperature;BME280_humidity;BME280_pressure;Samples;Min_cycle;Max_cycle;Signal;HPM_P1;HPM_P2
2021/08/18 00:02:07;;;;;;;23.90;13.05;;;;;;;14.78;93.73;99135.41;5063690;28;20045;-68
2021/08/18 00:04:32;;;;;;;28.75;13.13;;;;;;;14.79;93.90;99126.53;5065521;28;20024;-68
2021/08/18 00:06:57;;;;;;;22.40;12.98;;;;;;;14.87;93.66;99132.47;5056212;28;20100;-68
2021/08/18 00:09:24;;;;;;;22.38;13.20;;;;;;;14.83;93.47;99120.22;5065941;28;20096;-68
2021/08/18 00:11:49;;;;;;;24.65;13.18;;;;;;;14.91;93.09;99131.50;5065678;28;20211;-68
2021/08/18 00:14:15;;;;;;;26.85;13.35;;;;;;;14.83;93.34;99125.53;5047003;28;20095;-68
2021/08/18 00:16:40;;;;;;;25.63;13.25;;;;;;;14.80;93.72;99125.59;5048673;28;20014;-68
2021/08/18 00:19:06;;;;;;;25.90;13.07;;;;;;;14.81;93.87;99130.00;5046351;28;20021;-68
2021/08/18 00:21:31;;;;;;;23.08;13.45;;;;;;;14.84;94.13;99141.38;5047480;28;20017;-68
2021/08/18 00:23:57;;;;;;;21.98;12.77;;;;;;;14.81;93.75;99132.66;5047416;28;20052;-68
2021/08/18 00:26:26;;;;;;;24.25;13.50;;;;;;;14.80;94.17;99138.84;5047295;28;20372;-68
2021/08/18 00:28:53;;;;;;;26.02;14.68;;;;;;;14.75;94.33;99133.69;5048450;28;20017;-68
2021/08/18 00:31:19;;;;;;;23.08;13.88;;;;;;;14.88;93.78;99134.22;5064898;28;20024;-68
2021/08/18 00:33:44;;;;;;;29.33;14.05;;;;;;;15.01;92.89;99135.59;5058315;28;20347;-68
2021/08/18 00:36:10;;;;;;;28.27;14.07;;;;;;;14.97;92.83;99133.97;5066626;28;20021;-68
2021/08/18 00:38:35;;;;;;;24.30;13.75;;;;;;;14.91;93.14;99131.50;5048701;28;20017;-68
2021/08/18 00:41:01;;;;;;;28.75;14.02;;;;;;;14.94;93.06;99131.41;5058114;28;20040;-68
2021/08/18 00:43:26;;;;;;;30.15;14.00;;;;;;;14.80;93.23;99147.69;5065121;28;20013;-68
2021/08/18 00:45:53;;;;;;;27.52;14.50;;;;;;;14.88;93.49;99128.91;5051295;28;20209;-68
2021/08/18 00:48:19;;;;;;;28.42;15.13;;;;;;;14.88;93.54;99129.78;5063595;28;20040;-68
2021/08/18 00:50:44;;;;;;;26.17;14.30;;;;;;;14.94;93.46;99124.28;5066344;28;20009;-68
2021/08/18 00:53:09;;;;;;;26.38;14.35;;;;;;;14.99;92.93;99126.81;5065221;28;20013;-68
2021/08/18 00:55:35;;;;;;;26.75;13.60;;;;;;;15.01;93.15;99130.31;5064900;28;20079;-68
2021/08/18 00:58:02;;;;;;;37.65;15.27;;;;;;;14.93;92.90;99127.00;5064725;28;20305;-68
2021/08/18 01:00:28;;;;;;;29.73;13.95;;;;;;;14.90;92.75;99121.78;5046831;28;20017;-68
2021/08/18 01:02:57;;;;;;;30.05;14.50;;;;;;;14.87;93.14;99119.22;5055304;28;20091;-68
2021/08/18 01:05:25;;;;;;;30.13;14.07;;;;;;;14.84;93.42;99092.81;5054791;28;20316;-68
2021/08/18 01:07:52;;;;;;;28.73;14.00;;;;;;;14.94;92.90;99086.34;5066021;28;20025;-68
2021/08/18 01:10:23;;;;;;;28.17;14.18;;;;;;;14.87;93.32;99095.34;5063804;28;20189;-68
2021/08/18 01:12:50;;;;;;;26.40;15.00;;;;;;;14.89;93.32;99083.81;5046575;28;20029;-68
2021/08/18 01:15:18;;;;;;;27.35;14.65;;;;;;;14.95;93.04;99086.28;5046447;28;20084;-68
2021/08/18 01:17:47;;;;;;;27.55;14.95;;;;;;;15.05;92.24;99089.53;5045510;28;20028;-68
2021/08/18 01:20:16;;;;;;;28.95;15.13;;;;;;;14.98;92.42;99077.38;5046355;28;20029;-68
2021/08/18 01:22:43;;;;;;;37.25;15.52;;;;;;;15.01;92.87;99082.59;5047411;28;20032;-68
2021/08/18 01:25:09;;;;;;;29.33;15.52;;;;;;;14.99;92.70;99087.06;5053154;28;20320;-68
2021/08/18 01:27:36;;;;;;;33.88;16.48;;;;;;;14.94;93.07;99086.34;5063930;28;20025;-68
2021/08/18 01:30:04;;;;;;;29.48;16.30;;;;;;;14.93;92.78;99089.88;5054600;28;20024;-68
2021/08/18 01:33:10;;;;;;;30.08;16.20;;;;;;;14.90;93.12;99090.84;5052268;28;20028;-68
2021/08/18 01:35:46;;;;;;;30.38;15.50;;;;;;;14.94;92.93;99076.59;5061008;28;20336;-68
2021/08/18 01:38:14;;;;;;;31.60;15.05;;;;;;;14.86;93.51;99059.16;5046217;28;20055;-68
2021/08/18 01:40:40;;;;;;;25.70;13.88;;;;;;;14.91;93.44;99054.63;5058949;28;20180;-68
2021/08/18 01:43:07;;;;;;;33.22;15.00;;;;;;;14.88;93.71;99049.41;5059727;28;20324;-68
2021/08/18 01:45:38;;;;;;;26.48;13.98;;;;;;;14.93;93.52;99042.16;5063817;28;20029;-68
2021/08/18 01:48:19;;;;;;;30.00;13.82;;;;;;;14.97;93.40;99042.03;5051489;28;20028;-69
2021/08/18 01:50:46;;;;;;;18.85;12.35;;;;;;;15.00;92.74;99035.78;5045836;28;20025;-69
2021/08/18 01:53:23;;;;;;;22.30;12.48;;;;;;;15.00;93.13;99035.78;5045756;28;20021;-69
2021/08/18 01:55:49;;;;;;;22.58;11.82;;;;;;;14.98;92.80;99041.13;5045802;28;20017;-69
2021/08/18 01:58:15;;;;;;;21.70;13.32;;;;;;;14.96;93.49;99036.78;5046616;28;20044;-69
2021/08/18 02:00:40;;;;;;;22.85;12.93;;;;;;;14.93;93.58;99037.75;5045581;28;20308;-69
2021/08/18 02:03:06;;;;;;;26.70;14.75;;;;;;;14.94;93.33;99038.63;5050998;28;20083;-69
2021/08/18 02:05:32;;;;;;;19.63;13.30;;;;;;;14.95;93.76;99024.44;5056543;28;20022;-69
2021/08/18 02:07:57;;;;;;;28.77;14.90;;;;;;;14.97;93.98;99017.34;5055459;28;20028;-69
2021/08/18 02:10:23;;;;;;;35.05;15.70;;;;;;;14.99;94.10;99031.38;5048225;28;20016;-69
2021/08/18 02:12:50;;;;;;;27.52;14.25;;;;;;;14.95;94.18;99024.44;5058656;28;20017;-69
2021/08/18 02:15:26;;;;;;;27.77;15.15;;;;;;;14.94;93.82;99028.88;5046454;28;20040;-69
2021/08/18 02:17:51;;;;;;;27.35;14.85;;;;;;;14.96;94.17;99034.13;5055890;28;20316;-69
2021/08/18 02:20:21;;;;;;;27.40;14.68;;;;;;;15.00;93.79;99018.09;5059174;28;20064;-69
2021/08/18 02:22:47;;;;;;;23.95;14.88;;;;;;;14.96;93.77;98697.50;5045186;28;20380;-69
2021/08/18 02:25:12;;;;;;;26.77;15.13;;;;;;;14.96;93.85;98946.66;5063611;28;20024;-69
2021/08/18 02:27:39;;;;;;;30.67;14.30;;;;;;;15.02;93.94;98707.88;5060375;28;20029;-69
2021/08/18 02:30:05;;;;;;;29.25;13.70;;;;;;;15.02;94.07;98922.59;5045068;28;20018;-69
2021/08/18 02:32:31;;;;;;;22.55;13.10;;;;;;;14.97;94.66;99017.34;5044970;28;20021;-69
2021/08/18 02:34:56;;;;;;;27.15;13.07;;;;;;;15.06;94.23;99032.94;5062510;28;20024;-69
2021/08/18 02:37:22;;;;;;;22.98;12.35;;;;;;;15.07;93.90;99034.69;5064348;28;20044;-69
2021/08/18 02:39:47;;;;;;;18.75;11.52;;;;;;;15.00;94.04;99014.59;5057141;28;20025;-69
2021/08/18 02:42:12;;;;;;;19.77;12.65;;;;;;;15.04;94.12;99021.53;5046539;28;20087;-69
2021/08/18 02:44:38;;;;;;;21.80;12.48;;;;;;;14.95;94.31;99013.84;5064193;28;20028;-69
2021/08/18 02:47:04;;;;;;;26.80;13.95;;;;;;;14.93;94.68;99002.41;5063877;28;20084;-68
2021/08/18 02:49:29;;;;;;;18.48;11.18;;;;;;;14.98;94.87;98992.53;5062640;28;20027;-68
2021/08/18 02:51:55;;;;;;;18.83;11.05;;;;;;;15.04;94.69;99082.50;5062680;28;20028;-68
2021/08/18 02:54:23;;;;;;;18.90;10.88;;;;;;;15.02;94.32;99077.25;5063895;28;20024;-68
2021/08/18 02:56:49;;;;;;;18.30;10.98;;;;;;;15.04;94.25;99085.16;5047593;28;20027;-68
2021/08/18 02:59:14;;;;;;;22.30;10.85;;;;;;;15.00;94.47;99075.56;5063943;28;20021;-68
2021/08/18 03:01:40;;;;;;;20.15;10.43;;;;;;;15.02;94.49;99079.00;5062709;28;20240;-68
2021/08/18 03:04:05;;;;;;;18.38;10.60;;;;;;;14.99;94.70;99068.50;5048522;28;20320;-68
2021/08/18 03:06:31;;;;;;;17.13;10.52;;;;;;;15.05;94.50;99065.66;5063704;28;20024;-68
2021/08/18 03:08:56;;;;;;;18.92;9.70;;;;;;;15.03;94.46;99052.44;5063501;28;20033;-68
2021/08/18 03:11:21;;;;;;;16.73;9.18;;;;;;;15.05;94.58;99068.31;5062364;28;20024;-68
2021/08/18 03:13:47;;;;;;;26.23;10.25;;;;;;;15.09;94.47;99075.25;5063504;28;20021;-68
2021/08/18 03:16:13;;;;;;;15.40;9.77;;;;;;;15.08;94.33;99070.88;5046899;28;20045;-68
2021/08/18 03:18:38;;;;;;;15.88;9.00;;;;;;;15.03;94.44;99071.00;5062406;28;20096;-68
2021/08/18 03:21:03;;;;;;;18.15;10.18;;;;;;;15.10;94.58;99079.66;5062886;28;20080;-68
2021/08/18 03:23:29;;;;;;;17.25;9.57;;;;;;;15.08;94.52;99078.81;5044122;28;20021;-68
2021/08/18 03:25:54;;;;;;;21.10;9.73;;;;;;;15.05;94.88;99074.50;5044025;28;20080;-68
2021/08/18 03:28:20;;;;;;;16.00;9.27;;;;;;;15.06;94.56;99072.69;5044637;28;20021;-68
2021/08/18 03:30:45;;;;;;;14.38;8.05;;;;;;;15.09;94.87;99081.44;5062040;28;20032;-68
2021/08/18 03:33:11;;;;;;;12.63;7.72;;;;;;;15.05;94.91;99069.19;5063418;28;20048;-68
2021/08/18 03:35:36;;;;;;;15.30;8.25;;;;;;;15.06;95.30;99078.00;5061938;28;20092;-68
2021/08/18 03:38:02;;;;;;;16.33;8.68;;;;;;;15.03;95.50;99068.34;5062222;28;20033;-68
2021/08/18 03:40:28;;;;;;;13.10;8.25;;;;;;;15.01;95.84;99066.69;5063334;28;20024;-68
2021/08/18 03:42:53;;;;;;;11.07;7.15;;;;;;;15.01;95.86;99069.31;5044147;28;20021;-68
2021/08/18 03:45:19;;;;;;;13.57;7.55;;;;;;;14.98;96.04;99062.34;5044789;28;20032;-68
2021/08/18 03:47:44;;;;;;;13.25;6.88;;;;;;;15.02;96.10;99068.41;5042820;28;20021;-68
2021/08/18 03:50:10;;;;;;;12.48;7.03;;;;;;;15.02;95.89;99071.94;5044966;28;20022;-68
2021/08/18 03:52:40;;;;;;;13.45;7.88;;;;;;;15.02;95.86;99068.41;5059766;28;20040;-68
2021/08/18 03:55:06;;;;;;;11.30;7.00;;;;;;;15.01;95.86;99071.97;5043818;28;20017;-68
2021/08/18 03:57:31;;;;;;;10.38;6.18;;;;;;;15.04;96.19;99072.72;5042639;28;20020;-68
2021/08/18 03:59:57;;;;;;;12.52;6.15;;;;;;;15.04;96.09;99071.88;5042533;28;20021;-68
2021/08/18 04:02:22;;;;;;;11.25;6.55;;;;;;;15.00;96.13;99078.22;5053908;28;20048;-68
2021/08/18 04:04:47;;;;;;;11.45;6.25;;;;;;;15.05;95.96;99073.63;5043725;28;20309;-68
2021/08/18 04:07:13;;;;;;;10.60;6.22;;;;;;;15.04;96.45;99074.53;5061793;28;20028;-68
2021/08/18 04:09:38;;;;;;;10.88;6.95;;;;;;;15.01;96.81;99077.28;5063157;28;20040;-69
2021/08/18 04:12:04;;;;;;;9.32;6.57;;;;;;;15.03;96.42;99076.31;5046809;28;20092;-69
2021/08/18 04:14:29;;;;;;;10.95;6.70;;;;;;;15.06;96.50;99080.66;5046670;28;20024;-69
2021/08/18 04:16:55;;;;;;;11.95;6.43;;;;;;;15.09;96.27;99060.22;5062998;28;20166;-68
2021/08/18 04:19:20;;;;;;;11.25;6.80;;;;;;;15.01;96.57;99058.72;5063512;28;20017;-68
2021/08/18 04:21:45;;;;;;;11.50;7.38;;;;;;;14.97;97.08;99059.75;5049456;28;20041;-68
2021/08/18 04:24:11;;;;;;;14.00;8.48;;;;;;;14.98;97.05;99058.81;5042365;28;20017;-68
2021/08/18 04:26:36;;;;;;;11.60;7.88;;;;;;;14.96;97.33;99047.38;5043426;28;20309;-68
2021/08/18 04:29:02;;;;;;;10.45;7.45;;;;;;;14.98;97.20;99061.47;5057244;28;20251;-68
2021/08/18 04:31:27;;;;;;;16.40;7.88;;;;;;;15.00;97.37;99054.34;5062034;28;20021;-68
2021/08/18 04:33:53;;;;;;;11.50;7.13;;;;;;;15.09;97.04;99054.03;5063101;28;20021;-68
2021/08/18 04:36:18;;;;;;;13.95;8.00;;;;;;;15.04;96.74;99040.91;5044764;28;20041;-68
2021/08/18 04:38:44;;;;;;;13.98;8.27;;;;;;;15.01;96.84;99033.09;5042948;28;20208;-68
2021/08/18 04:41:09;;;;;;;14.07;7.65;;;;;;;15.01;97.02;99037.50;5046928;28;20025;-68
2021/08/18 04:43:34;;;;;;;10.90;7.40;;;;;;;15.02;96.89;99042.78;5056834;28;20032;-68
2021/08/18 04:46:00;;;;;;;11.02;7.40;;;;;;;15.09;96.82;99038.13;5066796;28;20028;-68
2021/08/18 04:48:25;;;;;;;16.50;7.30;;;;;;;15.03;96.88;99043.66;5066966;28;20047;-68
2021/08/18 04:50:50;;;;;;;11.48;7.20;;;;;;;15.02;96.92;99155.88;5065785;28;20025;-68
2021/08/18 04:53:16;;;;;;;9.38;6.97;;;;;;;15.06;96.86;99133.66;5065722;28;20056;-68
2021/08/18 04:55:42;;;;;;;11.05;6.55;;;;;;;15.05;96.88;99131.94;5066869;28;20088;-68
2021/08/18 04:58:07;;;;;;;11.95;7.28;;;;;;;15.09;96.85;99107.06;5065623;28;20064;-69
2021/08/18 05:00:33;;;;;;;12.02;6.82;;;;;;;15.11;96.57;99094.66;5065587;28;20028;-69
2021/08/18 05:02:59;;;;;;;10.68;6.25;;;;;;;15.07;96.79;99111.56;5066491;28;20335;-68
2021/08/18 05:05:25;;;;;;;10.75;6.97;;;;;;;15.14;96.35;99110.47;5066546;28;20033;-68
2021/08/18 05:07:51;;;;;;;11.90;6.88;;;;;;;15.11;96.29;99110.56;5066600;28;20087;-68
2021/08/18 05:10:17;;;;;;;14.55;6.90;;;;;;;15.12;96.39;99194.47;5066510;28;20303;-68
2021/08/18 05:12:42;;;;;;;11.10;7.30;;;;;;;15.15;96.12;99181.13;5066526;28;20063;-68
2021/08/18 05:15:08;;;;;;;10.98;7.25;;;;;;;15.21;96.04;99180.09;5066437;28;20025;-68
2021/08/18 05:17:33;;;;;;;11.77;6.95;;;;;;;15.24;96.03;99127.81;5065269;28;20091;-68
2021/08/18 05:19:59;;;;;;;13.57;6.70;;;;;;;15.21;95.54;99112.00;5066384;28;20088;-68
2021/08/18 05:22:24;;;;;;;10.77;6.65;;;;;;;15.23;95.85;99120.81;5066318;28;20021;-68
2021/08/18 05:24:50;;;;;;;11.23;7.28;;;;;;;15.16;96.02;99121.91;5066309;28;20127;-68
2021/08/18 05:27:15;;;;;;;11.23;7.55;;;;;;;15.16;96.16;99114.78;5066189;28;20029;-68
2021/08/18 05:29:41;;;;;;;14.10;7.43;;;;;;;15.17;96.76;99110.38;5066210;28;20025;-68
2021/08/18 05:32:06;;;;;;;12.88;8.13;;;;;;;15.16;96.82;99113.94;5066145;28;20362;-68
2021/08/18 05:34:32;;;;;;;11.13;7.57;;;;;;;15.19;97.14;99105.91;5066369;28;20047;-68
2021/08/18 05:36:57;;;;;;;14.45;7.80;;;;;;;15.17;97.29;99110.38;5066066;28;20071;-68
2021/08/18 05:39:23;;;;;;;9.88;6.65;;;;;;;15.19;97.03;99113.84;5066055;28;20032;-68
2021/08/18 05:41:48;;;;;;;11.77;7.25;;;;;;;15.22;96.82;99174.72;5066015;28;20070;-68
2021/08/18 05:44:14;;;;;;;14.13;8.30;;;;;;;15.22;96.63;99161.47;5065932;28;20029;-68
2021/08/18 05:46:39;;;;;;;13.35;8.20;;;;;;;15.29;96.40;99141.84;5064642;28;20053;-68
2021/08/18 05:49:05;;;;;;;13.25;9.00;;;;;;;15.19;96.53;99158.94;5065873;28;20379;-68
2021/08/18 05:51:30;;;;;;;16.27;9.40;;;;;;;15.20;96.90;99147.41;5063473;28;20017;-68
2021/08/18 05:53:56;;;;;;;15.35;8.85;;;;;;;15.26;96.77;99147.22;5065756;28;20031;-68
2021/08/18 05:56:21;;;;;;;16.10;9.35;;;;;;;15.30;96.43;99164.78;5065718;28;20017;-68
2021/08/18 05:58:46;;;;;;;16.08;9.63;;;;;;;15.30;96.87;99111.72;5065652;28;20092;-68
2021/08/18 06:01:12;;;;;;;18.67;10.55;;;;;;;15.22;96.99;99070.47;5065431;28;20021;-68
2021/08/18 06:03:37;;;;;;;17.00;9.52;;;;;;;15.26;96.96;99067.66;5064395;28;20219;-68
2021/08/18 06:06:03;;;;;;;13.02;8.30;;;;;;;15.39;96.61;99074.34;5065430;28;20025;-68
2021/08/18 06:08:29;;;;;;;14.93;8.93;;;;;;;15.47;96.20;99043.13;5064613;28;20316;-68
2021/08/18 06:10:54;;;;;;;17.13;9.70;;;;;;;15.52;96.32;99046.50;5064248;28;20024;-68
2021/08/18 06:13:19;;;;;;;11.60;7.95;;;;;;;15.62;96.06;99050.59;5064192;28;20336;-68
2021/08/18 06:15:45;;;;;;;12.10;7.72;;;;;;;15.73;95.58;99016.63;5065287;28;20021;-68
2021/08/18 06:18:10;;;;;;;12.68;7.30;;;;;;;15.84;95.40;99168.41;5065273;28;20093;-68
2021/08/18 06:20:36;;;;;;;13.88;7.45;;;;;;;15.88;95.08;99140.84;5065237;28;20028;-68
2021/08/18 06:23:02;;;;;;;8.73;5.90;;;;;;;15.85;94.70;99044.53;5064039;28;20020;-68
2021/08/18 06:25:28;;;;;;;9.35;6.35;;;;;;;15.86;94.89;99639.16;5063859;28;20335;-68
2021/08/18 06:27:54;;;;;;;10.40;6.05;;;;;;;15.84;94.86;99257.78;5065080;28;20023;-68
2021/08/18 06:30:19;;;;;;;8.90;5.93;;;;;;;15.87;94.34;99002.84;5065019;28;20017;-68
2021/08/18 06:32:45;;;;;;;10.45;6.47;;;;;;;15.80;94.93;98973.03;5064968;28;20232;-68
2021/08/18 06:35:10;;;;;;;11.55;6.00;;;;;;;15.80;95.05;98954.44;5064943;28;20044;-68
2021/08/18 06:37:36;;;;;;;11.93;5.88;;;;;;;15.79;95.20;99074.78;5064893;28;20021;-68
2021/08/18 06:40:03;;;;;;;10.77;5.78;;;;;;;15.78;94.76;99067.75;5064842;28;20082;-68
2021/08/18 06:42:30;;;;;;;10.60;5.95;;;;;;;15.79;95.08;99072.13;5064792;28;20088;-68
2021/08/18 06:44:55;;;;;;;10.20;6.13;;;;;;;15.79;94.97;98979.22;5064656;28;20021;-68
2021/08/18 06:47:21;;;;;;;11.35;5.93;;;;;;;15.79;94.68;98979.22;5064652;28;20031;-68
2021/08/18 06:49:46;;;;;;;10.63;6.70;;;;;;;15.81;95.31;98988.03;5064657;28;20044;-68
2021/08/18 06:52:12;;;;;;;10.85;6.82;;;;;;;15.85;95.13;98984.31;5064634;28;20024;-68
2021/08/18 06:54:37;;;;;;;12.52;7.15;;;;;;;15.83;95.05;98974.69;5064597;28;20020;-68
2021/08/18 06:57:03;;;;;;;12.18;7.28;;;;;;;15.90;94.58;99019.56;5063353;28;20017;-69
2021/08/18 06:59:29;;;;;;;13.32;7.22;;;;;;;15.88;94.92;99058.56;5064499;28;20212;-69
2021/08/18 07:01:54;;;;;;;12.48;7.35;;;;;;;15.89;94.71;99001.91;5063045;28;20220;-69
2021/08/18 07:04:19;;;;;;;10.68;6.95;;;;;;;15.90;94.70;99003.63;5064101;28;20020;-68
2021/08/18 07:06:45;;;;;;;10.85;6.55;;;;;;;15.92;94.44;98993.84;5064303;28;20096;-68
2021/08/18 07:09:10;;;;;;;11.65;6.32;;;;;;;15.93;94.82;99003.53;5064355;28;20338;-68
2021/08/18 07:11:36;;;;;;;9.68;6.05;;;;;;;15.93;94.73;99002.66;5064310;28;20041;-68
2021/08/18 07:14:03;;;;;;;10.45;5.65;;;;;;;15.95;95.15;99060.06;5064243;28;20087;-68
2021/08/18 07:16:30;;;;;;;14.55;7.03;;;;;;;15.95;95.27;98948.56;5064191;28;20220;-68
2021/08/18 07:18:57;;;;;;;9.27;5.38;;;;;;;15.97;95.38;99605.22;5064176;28;20021;-68
2021/08/18 07:21:23;;;;;;;11.77;5.78;;;;;;;15.99;95.46;99152.00;5064115;28;20017;-68
2021/08/18 07:23:50;;;;;;;9.75;5.53;;;;;;;16.14;95.87;99268.34;5064092;28;20067;-68
2021/08/18 07:26:16;;;;;;;9.45;5.07;;;;;;;16.24;95.19;99110.44;5062821;28;20021;-68
2021/08/18 07:28:42;;;;;;;11.07;5.78;;;;;;;16.27;95.43;99184.72;5064059;28;20020;-68
2021/08/18 07:31:08;;;;;;;12.18;5.80;;;;;;;16.26;98.44;99305.16;5064082;28;20028;-68
2021/08/18 07:33:34;;;;;;;8.65;5.78;;;;;;;16.28;97.28;99043.00;5063970;28;20024;-68
2021/08/18 07:35:59;;;;;;;8.45;5.18;;;;;;;16.42;95.52;99119.56;5063969;28;20016;-68
2021/08/18 07:38:25;;;;;;;7.90;5.15;;;;;;;16.48;94.34;99083.03;5063918;28;20017;-68
2021/08/18 07:40:50;;;;;;;11.35;5.70;;;;;;;16.43;93.40;99079.69;5063879;28;20029;-68
2021/08/18 07:43:16;;;;;;;7.18;4.35;;;;;;;16.46;94.11;99095.47;5063896;28;20028;-68
2021/08/18 07:45:42;;;;;;;9.18;4.70;;;;;;;16.44;93.72;99044.19;5063773;28;20079;-68
2021/08/18 07:48:07;;;;;;;7.45;4.68;;;;;;;16.59;93.76;99075.53;5063871;28;20032;-68
2021/08/18 07:50:33;;;;;;;7.18;4.70;;;;;;;16.71;93.02;99005.13;5063778;28;20029;-68
2021/08/18 07:52:58;;;;;;;13.15;4.90;;;;;;;16.68;94.15;99006.06;5063771;28;20336;-68
2021/08/18 07:55:24;;;;;;;6.75;4.38;;;;;;;16.66;94.64;99037.19;5063741;28;20089;-68
2021/08/18 07:57:49;;;;;;;6.53;4.13;;;;;;;16.76;94.26;99102.38;5063748;28;20029;-68
2021/08/18 08:00:16;;;;;;;7.35;4.28;;;;;;;16.85;93.91;99115.34;5063721;28;20070;-68
2021/08/18 08:02:44;;;;;;;7.40;3.90;;;;;;;16.86;93.08;99151.63;5063551;28;20041;-68
2021/08/18 08:05:11;;;;;;;6.43;3.65;;;;;;;17.11;93.70;99192.34;5063593;28;20051;-68
2021/08/18 08:07:36;;;;;;;7.38;3.15;;;;;;;17.38;92.31;99253.47;5063759;28;20025;-68
2021/08/18 08:10:05;;;;;;;5.25;2.53;;;;;;;17.49;91.24;99209.59;5063629;28;20241;-68
2021/08/18 08:12:30;;;;;;;3.85;2.75;;;;;;;17.85;91.06;99116.75;5063610;28;20334;-68
2021/08/18 08:14:56;;;;;;;5.50;2.72;;;;;;;17.81;90.02;99184.41;5064417;28;20021;-68
2021/08/18 08:17:21;;;;;;;4.28;2.22;;;;;;;17.99;89.59;98882.66;5067552;28;20020;-68
2021/08/18 08:19:47;;;;;;;2.97;1.90;;;;;;;17.73;89.18;99042.69;5067541;28;20259;-68
2021/08/18 08:22:12;;;;;;;2.47;1.58;;;;;;;17.55;89.51;98951.16;5067491;28;20051;-68
2021/08/18 08:24:37;;;;;;;2.30;1.48;;;;;;;17.52;88.72;99086.19;5067477;28;20032;-68
2021/08/18 08:27:03;;;;;;;3.72;2.10;;;;;;;17.34;88.76;99033.66;5067338;28;20212;-68
2021/08/18 08:29:28;;;;;;;2.65;1.90;;;;;;;17.25;90.34;98997.63;5067361;28;20025;-68
2021/08/18 08:31:54;;;;;;;3.50;2.30;;;;;;;17.30;89.73;99026.72;5067292;28;20040;-68
2021/08/18 08:34:19;;;;;;;6.38;3.50;;;;;;;17.33;90.14;99042.56;5067302;28;20202;-68
2021/08/18 08:36:45;;;;;;;3.45;2.83;;;;;;;17.51;90.30;99047.16;5067237;28;20017;-68
2021/08/18 08:39:10;;;;;;;5.20;2.83;;;;;;;17.52;89.62;99030.28;5067248;28;20248;-68
2021/08/18 08:41:36;;;;;;;6.03;3.53;;;;;;;17.47;89.83;99112.09;5067217;28;20259;-68
2021/08/18 08:44:02;;;;;;;7.70;3.92;;;;;;;17.50;90.79;98954.94;5067071;28;20031;-68
2021/08/18 08:46:28;;;;;;;6.25;3.28;;;;;;;17.56;90.84;98978.66;5065817;28;20048;-68
2021/08/18 08:48:54;;;;;;;5.30;2.17;;;;;;;17.55;90.39;99102.00;5066989;28;20043;-68
2021/08/18 08:51:21;;;;;;;3.20;2.30;;;;;;;17.46;90.80;98764.41;5067026;28;20029;-68
2021/08/18 08:53:46;;;;;;;3.80;1.88;;;;;;;17.54;89.59;98770.25;5066906;28;20092;-68
2021/08/18 08:56:12;;;;;;;1.52;1.40;;;;;;;17.43;89.46;98767.22;5066902;28;20017;-68
2021/08/18 08:58:37;;;;;;;2.30;1.70;;;;;;;17.47;89.76;98769.66;5066807;28;20047;-68
2021/08/18 09:01:03;;;;;;;1.30;1.20;;;;;;;17.44;90.50;98774.25;5066622;28;20044;-68
2021/08/18 09:03:29;;;;;;;1.75;0.85;;;;;;;17.55;88.77;98771.94;5066671;28;20269;-68
2021/08/18 09:06:02;;;;;;;1.33;0.98;;;;;;;17.51;90.22;98773.03;5066575;28;20339;-68
2021/08/18 09:08:28;;;;;;;3.65;1.10;;;;;;;17.34;91.25;98778.22;5066645;28;20217;-68
2021/08/18 09:11:14;;;;;;;1.67;1.40;;;;;;;17.26;91.57;98775.88;5065402;28;20100;-68
2021/08/18 09:13:51;;;;;;;2.08;1.65;;;;;;;17.27;92.75;98776.75;5066518;28;20024;-68
2021/08/18 09:16:19;;;;;;;1.90;1.40;;;;;;;17.45;91.32;98775.97;5066550;28;20223;-68
2021/08/18 09:18:49;;;;;;;1.83;1.70;;;;;;;17.40;91.89;98767.31;5066425;28;20032;-68
2021/08/18 09:21:39;;;;;;;1.70;1.58;;;;;;;17.43;90.95;98767.22;5066497;28;20189;-68
2021/08/18 09:24:21;;;;;;;3.42;2.47;;;;;;;17.40;90.07;98767.31;5066399;28;20373;-68
2021/08/18 09:26:54;;;;;;;;;;;;;;;17.54;89.91;98765.78;5066523;28;20024;-68
2021/08/18 09:29:29;;;;;;;2.95;2.35;;;;;;;17.75;90.17;98770.13;5066270;28;19911;-68
2021/08/18 09:31:55;;;;;;;3.63;2.60;;;;;;;17.89;90.31;98762.38;5066178;28;20032;-68
2021/08/18 09:34:21;;;;;;;2.58;2.20;;;;;;;17.92;89.63;98766.69;5066217;28;20024;-68
2021/08/18 09:36:46;;;;;;;2.97;1.90;;;;;;;18.05;87.18;98762.50;5066126;28;20020;-68
2021/08/18 09:39:23;;;;;;;2.42;1.73;;;;;;;18.23;87.20;98761.66;5066088;28;20058;-68
2021/08/18 09:41:50;;;;;;;2.85;1.90;;;;;;;18.49;86.23;98758.63;5066032;28;20348;-68
2021/08/18 09:44:16;;;;;;;2.70;1.80;;;;;;;18.75;86.43;98766.19;5064817;28;20212;-68
2021/08/18 09:46:41;;;;;;;2.75;1.70;;;;;;;18.84;85.11;98763.06;5065854;28;20025;-68
2021/08/18 09:49:12;;;;;;;3.33;1.73;;;;;;;19.04;85.29;98758.44;5064705;28;20056;-68
2021/08/18 09:51:39;;;;;;;2.40;1.90;;;;;;;19.06;86.13;98755.69;5065928;28;20025;-68
2021/08/18 09:54:17;;;;;;;2.25;1.38;;;;;;;18.96;86.62;98752.63;5064623;28;20024;-68
2021/08/18 09:56:48;;;;;;;3.55;1.35;;;;;;;19.04;85.51;98754.91;5065949;28;20084;-68
2021/08/18 09:59:16;;;;;;;1.73;1.13;;;;;;;18.99;84.54;98755.13;5065713;28;20096;-69
2021/08/18 10:01:41;;;;;;;2.65;1.20;;;;;;;18.89;84.96;98753.03;5065486;28;20040;-69
2021/08/18 10:04:07;;;;;;;2.05;1.85;;;;;;;18.66;85.61;98753.31;5065483;28;20208;-69
2021/08/18 10:06:33;;;;;;;3.22;1.70;;;;;;;18.49;85.77;98732.84;5064334;28;20326;-69
2021/08/18 10:09:00;;;;;;;1.40;1.30;;;;;;;18.36;85.85;98733.47;5065493;28;20017;-69
2021/08/18 10:11:27;;;;;;;1.48;1.00;;;;;;;18.33;85.89;98733.63;5064312;28;20313;-69
2021/08/18 10:13:54;;;;;;;1.38;0.95;;;;;;;18.20;86.29;98738.69;5065378;28;20370;-68
2021/08/18 10:16:20;;;;;;;1.10;1.00;;;;;;;18.01;87.83;98735.19;5065357;28;20021;-68
2021/08/18 10:18:52;;;;;;;2.40;1.33;;;;;;;18.04;88.29;98734.16;5064160;28;20320;-68
2021/08/18 10:21:29;;;;;;;1.10;0.90;;;;;;;17.96;87.84;98746.97;5065282;28;20063;-68
2021/08/18 10:23:57;;;;;;;3.40;1.08;;;;;;;18.19;88.74;98760.91;5065210;28;20049;-68
2021/08/18 10:26:35;;;;;;;0.98;0.80;;;;;;;18.25;89.33;98743.75;5065064;28;20020;-68
2021/08/18 10:29:01;;;;;;;2.42;0.73;;;;;;;18.32;89.43;98750.56;5065067;28;20071;-68
2021/08/18 10:31:42;;;;;;;2.65;1.13;;;;;;;18.58;89.51;98753.69;5065073;28;20036;-69
2021/08/18 10:34:07;;;;;;;2.45;1.23;;;;;;;18.94;87.40;98750.97;5065022;28;20025;-69
2021/08/18 10:36:42;;;;;;;1.95;1.40;;;;;;;19.13;88.31;98762.44;5064937;28;20216;-69
2021/08/18 10:39:25;;;;;;;2.72;1.20;;;;;;;19.37;86.75;98809.25;5064290;28;20031;-69
2021/08/18 10:42:01;;;;;;;1.95;1.40;;;;;;;19.18;86.73;98755.06;5064814;28;20033;-69
2021/08/18 10:44:46;;;;;;;2.03;1.10;;;;;;;19.04;84.38;98757.56;5064794;28;20025;-69
2021/08/18 10:47:16;;;;;;;2.53;0.88;;;;;;;19.11;84.61;98759.00;5064826;28;20249;-69
2021/08/18 10:49:43;;;;;;;1.15;0.60;;;;;;;19.33;85.33;99085.28;5063568;28;20248;-69
2021/08/18 10:52:09;;;;;;;2.22;0.73;;;;;;;19.37;87.25;98803.91;5064932;28;20021;-69
2021/08/18 10:54:39;;;;;;;1.08;0.60;;;;;;;19.42;85.37;98943.34;5064654;28;20016;-69
2021/08/18 10:57:36;;;;;;;0.95;0.70;;;;;;;19.66;86.07;98853.13;5064553;28;20013;-69
2021/08/18 11:00:09;;;;;;;0.90;0.70;;;;;;;19.37;85.84;98814.59;5064498;28;20021;-69
2021/08/18 11:03:00;;;;;;;1.25;0.60;;;;;;;19.31;85.23;98809.56;5063721;28;20033;-69
2021/08/18 11:05:27;;;;;;;0.60;0.60;;;;;;;19.27;86.09;98799.13;5063539;28;20016;-69
2021/08/18 11:08:14;;;;;;;0.90;0.90;;;;;;;19.19;87.75;98799.47;5063652;28;20024;-69
2021/08/18 11:10:41;;;;;;;0.70;0.70;;;;;;;19.40;85.84;98794.88;5062472;28;20091;-69
2021/08/18 11:13:11;;;;;;;3.10;1.10;;;;;;;19.23;87.18;98798.38;5063531;28;20068;-69
2021/08/18 11:15:37;;;;;;;1.00;0.90;;;;;;;19.13;86.28;98791.78;5063794;28;20366;-69
2021/08/18 11:18:03;;;;;;;4.20;0.82;;;;;;;19.17;86.28;98809.34;5063470;28;20079;-69
2021/08/18 11:20:29;;;;;;;0.45;0.45;;;;;;;19.29;83.78;98800.75;5063427;28;20036;-69
2021/08/18 11:22:59;;;;;;;0.50;0.50;;;;;;;19.42;84.45;98796.50;5063381;28;20024;-69
2021/08/18 11:25:25;;;;;;;1.10;0.82;;;;;;;19.48;84.56;98812.22;5062164;28;20027;-69
2021/08/18 11:27:53;;;;;;;1.80;1.30;;;;;;;19.59;84.75;98804.53;5063349;28;20048;-69